createdAt,value
2022-08-04T00:00:23.352Z,100665.28
2022-08-04T00:03:14.975Z,100669.34
2022-08-04T00:06:12.488Z,100674.13
2022-08-04T00:08:43.672Z,100676.53
2022-08-04T00:11:15.643Z,100665.56
2022-08-04T00:14:02.879Z,100677.59
2022-08-04T00:16:37.562Z,100670.47
2022-08-04T00:19:11.903Z,100671.41
2022-08-04T00:21:43.509Z,100674.31
2022-08-04T00:24:13.087Z,100680.75
2022-08-04T00:26:41.271Z,100687.22
2022-08-04T00:29:08.678Z,100679.97
2022-08-04T00:31:56.421Z,100676.72
2022-08-04T00:34:29.238Z,100670.94
2022-08-04T00:36:57.633Z,100672.94
2022-08-04T00:39:25.777Z,100677.28
2022-08-04T00:42:09.933Z,100684.88
2022-08-04T00:44:56.127Z,100685.66
2022-08-04T00:47:23.511Z,100683.00
2022-08-04T00:49:59.651Z,100687.88
2022-08-04T00:52:45.365Z,100685.16
2022-08-04T00:55:32.454Z,100690.06
2022-08-04T00:58:20.261Z,100685.28
2022-08-04T01:01:20.154Z,100682.41
2022-08-04T01:03:59.881Z,100672.44
2022-08-04T01:06:50.951Z,100676.91
2022-08-04T01:09:29.320Z,100678.16
2022-08-04T01:12:07.863Z,100686.16
2022-08-04T01:14:56.933Z,100683.38
2022-08-04T01:17:38.347Z,100693.09
2022-08-04T01:20:08.503Z,100678.22
2022-08-04T01:23:10.106Z,100684.66
2022-08-04T01:26:02.180Z,100683.00
2022-08-04T01:29:11.022Z,100690.66
2022-08-04T01:31:53.912Z,100682.22
2022-08-04T01:34:23.481Z,100697.91
2022-08-04T01:37:08.584Z,100695.94
2022-08-04T01:39:58.264Z,100687.91
2022-08-04T01:42:31.974Z,100687.88
2022-08-04T01:45:05.664Z,100676.63
2022-08-04T01:47:36.062Z,100677.00
2022-08-04T01:50:08.540Z,100676.19
2022-08-04T01:52:37.590Z,100668.91
2022-08-04T01:55:07.328Z,100671.03
2022-08-04T01:57:38.428Z,100672.25
2022-08-04T02:00:07.277Z,100677.44
2022-08-04T02:02:35.641Z,100673.00
2022-08-04T02:05:03.255Z,100666.97
2022-08-04T02:08:04.484Z,100669.44
2022-08-04T02:10:51.376Z,100668.25
2022-08-04T02:13:24.652Z,100668.66
2022-08-04T02:16:02.898Z,100675.47
2022-08-04T02:18:33.836Z,100677.44
2022-08-04T02:21:02.134Z,100671.06
2022-08-04T02:23:30.930Z,100661.81
2022-08-04T02:26:03.664Z,100656.59
2022-08-04T02:28:36.373Z,100651.78
2022-08-04T02:31:23.952Z,100647.31
2022-08-04T02:34:05.298Z,100645.72
2022-08-04T02:36:42.930Z,100636.91
2022-08-04T02:39:12.167Z,100643.31
2022-08-04T02:41:40.339Z,100646.16
2022-08-04T02:44:10.150Z,100655.78
2022-08-04T02:46:39.104Z,100649.38
2022-08-04T02:49:09.933Z,100655.41
2022-08-04T02:51:41.342Z,100661.41
2022-08-04T02:54:09.204Z,100663.44
2022-08-04T02:56:38.617Z,100670.22
2022-08-04T02:59:09.277Z,100670.66
2022-08-04T03:01:37.452Z,100670.25
2022-08-04T03:04:32.026Z,100674.28
2022-08-04T03:07:14.394Z,100664.63
2022-08-04T03:10:09.812Z,100673.44
2022-08-04T03:13:21.810Z,100669.41
2022-08-04T03:15:58.693Z,100675.41
2022-08-04T03:18:43.393Z,100675.41
2022-08-04T03:21:50.253Z,100676.09
2022-08-04T03:24:23.418Z,100664.91
2022-08-04T03:27:32.934Z,100664.16
2022-08-04T03:30:07.274Z,100666.59
2022-08-04T03:32:49.865Z,100663.78
2022-08-04T03:35:54.146Z,100656.91
2022-08-04T03:38:57.096Z,100665.38
2022-08-04T03:41:51.639Z,100660.56
2022-08-04T03:44:52.310Z,100666.56
2022-08-04T03:47:44.227Z,100670.19
2022-08-04T03:50:29.278Z,100671.34
2022-08-04T03:53:15.043Z,100664.13
2022-08-04T03:55:51.417Z,100638.06
2022-08-04T03:58:36.763Z,100640.50
2022-08-04T04:01:07.205Z,100634.13
2022-08-04T04:04:02.894Z,100632.53
2022-08-04T04:06:49.770Z,100634.09
2022-08-04T04:09:48.488Z,100645.34
2022-08-04T04:13:00.782Z,100663.81
2022-08-04T04:15:50.356Z,100669.44
2022-08-04T04:18:50.180Z,100670.25
2022-08-04T04:21:34.244Z,100684.31
2022-08-04T04:24:32.750Z,100673.06
2022-08-04T04:27:19.415Z,100679.09
2022-08-04T04:30:05.095Z,100683.09
2022-08-04T04:32:54.733Z,100681.81
2022-08-04T04:35:28.230Z,100687.34
2022-08-04T04:38:20.897Z,100686.25
2022-08-04T04:41:06.637Z,100691.38
2022-08-04T04:43:51.106Z,100704.00
2022-08-04T04:46:38.197Z,100731.66
2022-08-04T04:49:29.176Z,100741.38
2022-08-04T04:52:08.901Z,100719.72
2022-08-04T04:54:39.215Z,100725.34
2022-08-04T04:57:20.928Z,100729.34
2022-08-04T05:00:13.358Z,100728.31
2022-08-04T05:03:01.687Z,100731.19
2022-08-04T05:05:30.640Z,100711.25
2022-08-04T05:08:42.774Z,100721.69
2022-08-04T05:11:24.527Z,100728.84
2022-08-04T05:14:37.200Z,100730.09
2022-08-04T05:16:55.036Z,100735.47
2022-08-04T05:20:01.902Z,100721.38
2022-08-04T05:22:54.224Z,100719.81
2022-08-04T05:25:25.916Z,100732.44
2022-08-04T05:28:00.966Z,100739.53
2022-08-04T05:30:30.581Z,100750.97
2022-08-04T05:33:05.027Z,100748.94
2022-08-04T05:35:53.104Z,100756.88
2022-08-04T05:38:24.088Z,100760.41
2022-08-04T05:40:51.373Z,100752.41
2022-08-04T05:43:19.425Z,100745.47
2022-08-04T05:45:48.545Z,100746.25
2022-08-04T05:48:16.766Z,100741.44
2022-08-04T05:50:45.538Z,100748.69
2022-08-04T05:53:13.853Z,100745.88
2022-08-04T05:55:56.595Z,100743.25
2022-08-04T05:58:30.432Z,100741.00
2022-08-04T06:01:01.637Z,100739.94
2022-08-04T06:03:32.023Z,100742.41
2022-08-04T06:05:59.853Z,100734.97
2022-08-04T06:08:29.366Z,100739.66
2022-08-04T06:10:59.700Z,100739.38
2022-08-04T06:13:49.648Z,100748.13
2022-08-04T06:16:29.583Z,100745.41
2022-08-04T06:20:00.958Z,100743.69
2022-08-04T06:21:50.311Z,100728.50
2022-08-04T06:24:23.857Z,100729.72
2022-08-04T06:26:52.128Z,100736.53
2022-08-04T06:29:28.185Z,100740.97
2022-08-04T06:32:29.939Z,100742.19
2022-08-04T06:34:46.702Z,100734.53
2022-08-04T06:37:24.144Z,100734.94
2022-08-04T06:40:31.007Z,100740.56
2022-08-04T06:42:53.836Z,100740.16
2022-08-04T06:45:21.475Z,100742.56
2022-08-04T06:47:49.360Z,100750.22
2022-08-04T06:51:30.525Z,100758.69
2022-08-04T06:53:05.040Z,100757.06
2022-08-04T06:55:33.731Z,100763.09
2022-08-04T06:58:03.249Z,100765.44
2022-08-04T07:00:32.304Z,100766.00
2022-08-04T07:02:59.933Z,100773.22
2022-08-04T07:05:27.486Z,100775.66
2022-08-04T07:07:58.039Z,100772.97
2022-08-04T07:10:29.985Z,100772.75
2022-08-04T07:12:59.012Z,100769.94
2022-08-04T07:15:27.252Z,100779.56
2022-08-04T07:18:00.205Z,100779.19
2022-08-04T07:20:34.846Z,100784.78
2022-08-04T07:23:07.179Z,100777.50
2022-08-04T07:25:58.628Z,100785.53
2022-08-04T07:28:25.674Z,100776.31
2022-08-04T07:30:54.157Z,100793.19
2022-08-04T07:33:22.186Z,100789.47
2022-08-04T07:36:09.243Z,100785.63
2022-08-04T07:38:46.452Z,100802.84
2022-08-04T07:41:35.897Z,100805.69
2022-08-04T07:44:05.077Z,100791.97
2022-08-04T07:46:32.513Z,100797.19
2022-08-04T07:49:01.113Z,100806.78
2022-08-04T07:51:30.536Z,100794.06
2022-08-04T07:53:58.621Z,100799.66
2022-08-04T07:56:26.850Z,100812.16
2022-08-04T07:58:54.655Z,100831.03
2022-08-04T08:01:25.676Z,100836.59
2022-08-04T08:03:54.287Z,100839.50
2022-08-04T08:06:32.443Z,100828.25
2022-08-04T08:09:13.039Z,100816.94
2022-08-04T08:12:37.069Z,100831.00
2022-08-04T08:14:31.423Z,100835.00
2022-08-04T08:17:00.243Z,100838.63
2022-08-04T08:19:27.893Z,100844.66
2022-08-04T08:21:59.267Z,100858.72
2022-08-04T08:24:32.632Z,100861.56
2022-08-04T08:27:00.554Z,100853.47
2022-08-04T08:29:29.578Z,100846.22
2022-08-04T08:32:01.371Z,100840.56
2022-08-04T08:34:32.850Z,100836.56
2022-08-04T08:37:07.927Z,100832.63
2022-08-04T08:39:40.588Z,100857.59
2022-08-04T08:42:46.929Z,100854.88
2022-08-04T08:45:36.798Z,100853.91
2022-08-04T08:48:38.084Z,100867.44
2022-08-04T08:51:28.608Z,100848.25
2022-08-04T08:54:34.020Z,100860.53
2022-08-04T08:57:13.477Z,100852.06
2022-08-04T09:00:08.851Z,100839.47
2022-08-04T09:03:04.015Z,100841.03
2022-08-04T09:05:57.131Z,100843.03
2022-08-04T09:08:27.308Z,100849.22
2022-08-04T09:10:56.170Z,100853.19
2022-08-04T09:13:46.308Z,100861.25
2022-08-04T09:16:37.094Z,100852.44
2022-08-04T09:19:37.895Z,100857.03
2022-08-04T09:22:29.889Z,100869.94
2022-08-04T09:25:05.028Z,100878.44
2022-08-04T09:27:44.363Z,100878.50
2022-08-04T09:30:13.909Z,100875.69
2022-08-04T09:32:50.536Z,100880.91
2022-08-04T09:35:30.286Z,100889.38
2022-08-04T09:38:06.825Z,100873.28
2022-08-04T09:40:53.355Z,100870.47
2022-08-04T09:43:59.095Z,100874.44
2022-08-04T09:46:26.189Z,100878.50
2022-08-04T09:48:59.046Z,100878.03
2022-08-04T09:51:57.764Z,100880.41
2022-08-04T09:54:45.459Z,100885.66
2022-08-04T09:57:19.036Z,100872.72
2022-08-04T09:59:55.191Z,100872.00
2022-08-04T10:02:23.973Z,100875.50
2022-08-04T10:04:53.393Z,100866.34
2022-08-04T10:08:04.821Z,100875.22
2022-08-04T10:10:54.866Z,100872.81
2022-08-04T10:13:53.294Z,100877.69
2022-08-04T10:16:20.518Z,100869.53
2022-08-04T10:19:20.902Z,100869.66
2022-08-04T10:22:30.993Z,100869.66
2022-08-04T10:25:37.505Z,100873.69
2022-08-04T10:28:21.633Z,100867.66
2022-08-04T10:30:59.609Z,100877.69
2022-08-04T10:33:50.647Z,100879.31
2022-08-04T10:36:21.067Z,100873.28
2022-08-04T10:39:00.298Z,100866.03
2022-08-04T10:41:38.592Z,100864.38
2022-08-04T10:44:42.098Z,100856.00
2022-08-04T10:47:16.577Z,100849.94
2022-08-04T10:49:46.881Z,100843.91
2022-08-04T10:52:42.038Z,100847.94
2022-08-04T10:55:18.359Z,100830.59
2022-08-04T10:57:52.198Z,100836.66
2022-08-04T11:00:27.086Z,100842.63
2022-08-04T11:03:09.683Z,100839.41
2022-08-04T11:05:44.330Z,100852.69
2022-08-04T11:08:21.516Z,100845.47
2022-08-04T11:10:56.789Z,100845.38
2022-08-04T11:13:29.746Z,100846.50
2022-08-04T11:15:59.523Z,100860.69
2022-08-04T11:18:36.217Z,100846.66
2022-08-04T11:21:10.095Z,100848.16
2022-08-04T11:23:42.073Z,100841.38
2022-08-04T11:26:13.593Z,100850.25
2022-08-04T11:28:58.530Z,100855.09
2022-08-04T11:31:44.711Z,100856.19
2022-08-04T11:34:25.490Z,100857.50
2022-08-04T11:37:31.515Z,100866.63
2022-08-04T11:40:08.680Z,100850.88
2022-08-04T11:42:41.675Z,100863.03
2022-08-04T11:45:22.003Z,100852.63
2022-08-04T11:48:01.947Z,100847.16
2022-08-04T11:50:46.698Z,100853.94
2022-08-04T11:53:19.802Z,100850.91
2022-08-04T11:56:06.958Z,100847.53
2022-08-04T11:58:35.907Z,100852.72
2022-08-04T12:01:19.854Z,100852.78
2022-08-04T12:04:29.685Z,100851.81
2022-08-04T12:07:28.838Z,100858.75
2022-08-04T12:10:03.865Z,100850.53
2022-08-04T12:13:11.867Z,100846.53
2022-08-04T12:15:49.317Z,100851.25
2022-08-04T12:18:22.779Z,100849.22
2022-08-04T12:20:58.051Z,100854.28
2022-08-04T12:23:40.358Z,100852.88
2022-08-04T12:26:11.062Z,100841.47
2022-08-04T12:29:08.656Z,100841.97
2022-08-04T12:31:38.915Z,100846.19
2022-08-04T12:34:12.429Z,100848.97
2022-08-04T12:36:43.302Z,100849.41
2022-08-04T12:39:14.298Z,100848.13
2022-08-04T12:42:05.053Z,100841.63
2022-08-04T12:44:38.705Z,100841.28
2022-08-04T12:47:27.775Z,100836.56
2022-08-04T12:50:02.344Z,100845.00
2022-08-04T12:53:06.393Z,100844.19
2022-08-04T12:55:35.504Z,100837.41
2022-08-04T12:58:14.217Z,100822.13
2022-08-04T13:00:44.951Z,100822.09
2022-08-04T13:03:15.011Z,100824.09
2022-08-04T13:05:43.845Z,100836.72
2022-08-04T13:08:12.246Z,100838.63
2022-08-04T13:10:47.017Z,100841.31
2022-08-04T13:13:19.842Z,100835.63
2022-08-04T13:16:12.830Z,100832.84
2022-08-04T13:18:49.917Z,100832.84
2022-08-04T13:21:22.792Z,100830.25
2022-08-04T13:24:20.413Z,100848.91
2022-08-04T13:26:55.608Z,100829.41
2022-08-04T13:30:25.246Z,100840.13
2022-08-04T13:32:22.325Z,100826.81
2022-08-04T13:34:53.013Z,100825.44
2022-08-04T13:37:27.439Z,100820.72
2022-08-04T13:39:56.519Z,100818.56
2022-08-04T13:42:25.967Z,100823.00
2022-08-04T13:44:56.595Z,100809.00
2022-08-04T13:47:29.002Z,100818.72
2022-08-04T13:50:11.644Z,100823.19
2022-08-04T13:52:43.149Z,100806.66
2022-08-04T13:55:22.530Z,100816.69
2022-08-04T13:58:17.685Z,100810.78
2022-08-04T14:01:06.964Z,100813.34
2022-08-04T14:03:54.186Z,100821.91
2022-08-04T14:06:27.183Z,100810.53
2022-08-04T14:08:59.867Z,100807.13
2022-08-04T14:12:09.378Z,100804.03
2022-08-04T14:14:32.935Z,100799.59
2022-08-04T14:17:20.016Z,100801.47
2022-08-04T14:19:53.623Z,100797.09
2022-08-04T14:22:27.098Z,100808.69
2022-08-04T14:25:16.229Z,100803.50
2022-08-04T14:27:55.057Z,100797.69
2022-08-04T14:30:28.204Z,100794.38
2022-08-04T14:34:02.713Z,100799.84
2022-08-04T14:36:04.113Z,100801.38
2022-08-04T14:39:01.626Z,100803.78
2022-08-04T14:41:34.338Z,100803.66
2022-08-04T14:44:03.756Z,100811.38
2022-08-04T14:46:36.856Z,100808.88
2022-08-04T14:49:12.686Z,100802.94
2022-08-04T14:51:42.074Z,100806.84
2022-08-04T14:54:17.217Z,100808.88
2022-08-04T14:56:52.754Z,100803.41
2022-08-04T14:59:20.315Z,100808.28
2022-08-04T15:02:00.327Z,100802.59
2022-08-04T15:04:31.512Z,100812.13
2022-08-04T15:07:00.580Z,100811.25
2022-08-04T15:09:33.203Z,100818.53
2022-08-04T15:12:00.827Z,100820.84
2022-08-04T15:14:36.870Z,100835.31
2022-08-04T15:17:11.943Z,100831.34
2022-08-04T15:19:41.340Z,100829.34
2022-08-04T15:22:23.535Z,100833.97
2022-08-04T15:24:54.895Z,100828.66
2022-08-04T15:27:28.969Z,100835.88
2022-08-04T15:30:02.831Z,100833.66
2022-08-04T15:32:32.560Z,100836.03
2022-08-04T15:35:06.893Z,100842.22
2022-08-04T15:37:46.268Z,100837.22
2022-08-04T15:40:33.079Z,100841.88
2022-08-04T15:43:08.851Z,100854.72
2022-08-04T15:46:34.990Z,100844.91
2022-08-04T15:48:40.147Z,100863.81
2022-08-04T15:51:14.198Z,100887.28
2022-08-04T15:54:03.262Z,100899.78
2022-08-04T15:56:30.149Z,100905.44
2022-08-04T15:59:00.822Z,100910.56
2022-08-04T16:01:28.301Z,100914.44
2022-08-04T16:03:59.803Z,100920.50
2022-08-04T16:06:29.546Z,100930.34
2022-08-04T16:08:59.357Z,100930.16
2022-08-04T16:11:30.915Z,100928.16
2022-08-04T16:13:59.693Z,100928.88
2022-08-04T16:16:44.759Z,100916.13
2022-08-04T16:19:36.983Z,100893.84
2022-08-04T16:22:04.796Z,100874.81
2022-08-04T16:24:41.667Z,100855.09
2022-08-04T16:27:10.078Z,100845.47
2022-08-04T16:29:42.603Z,100838.41
2022-08-04T16:32:11.876Z,100842.28
2022-08-04T16:34:48.312Z,100841.13
2022-08-04T16:37:19.445Z,100835.75
2022-08-04T16:39:50.063Z,100818.34
2022-08-04T16:42:28.685Z,100807.81
2022-08-04T16:45:14.524Z,100809.25
2022-08-04T16:47:47.722Z,100809.00
2022-08-04T16:50:22.732Z,100819.13
2022-08-04T16:52:52.888Z,100820.31
2022-08-04T16:55:21.661Z,100820.97
2022-08-04T16:57:49.946Z,100804.03
2022-08-04T17:00:18.568Z,100811.50
2022-08-04T17:02:46.252Z,100807.06
2022-08-04T17:05:39.793Z,100811.03
2022-08-04T17:10:56.662Z,100786.16
2022-08-04T17:14:02.847Z,100779.28
2022-08-04T17:16:38.503Z,100777.66
2022-08-04T17:19:25.067Z,100790.84
2022-08-04T17:22:04.615Z,100777.00
2022-08-04T17:24:34.797Z,100789.34
2022-08-04T17:27:04.243Z,100785.63
2022-08-04T17:29:42.812Z,100782.25
2022-08-04T17:32:19.692Z,100798.66
2022-08-04T17:34:58.642Z,100806.47
2022-08-04T17:37:40.087Z,100820.31
2022-08-04T17:40:18.261Z,100807.41
2022-08-04T17:44:03.548Z,100825.06
2022-08-04T17:46:28.136Z,100829.88
2022-08-04T17:49:05.738Z,100832.72
2022-08-04T17:52:06.892Z,100828.53
2022-08-04T17:54:40.332Z,100832.28
2022-08-04T17:57:20.388Z,100826.63
2022-08-04T17:59:57.959Z,100831.66
2022-08-04T18:02:33.192Z,100828.66
2022-08-04T18:05:11.615Z,100833.19
2022-08-04T18:08:45.414Z,100830.66
2022-08-04T18:10:54.599Z,100839.56
2022-08-04T18:13:27.372Z,100857.75
2022-08-04T18:16:03.108Z,100855.66
2022-08-04T18:18:30.776Z,100861.41
2022-08-04T18:20:59.890Z,100855.81
2022-08-04T18:23:31.315Z,100854.19
2022-08-04T18:26:02.424Z,100853.56
2022-08-04T18:28:33.451Z,100850.66
2022-08-04T18:31:02.347Z,100861.59
2022-08-04T18:33:37.850Z,100851.09
2022-08-04T18:36:34.060Z,100867.22
2022-08-04T18:39:13.188Z,100858.34
2022-08-04T18:42:01.384Z,100858.72
2022-08-04T18:44:32.368Z,100865.16
2022-08-04T18:47:19.675Z,100870.06
2022-08-04T18:50:32.704Z,100873.69
2022-08-04T18:52:36.453Z,100877.69
2022-08-04T18:55:55.262Z,100881.31
2022-08-04T18:58:07.701Z,100878.50
2022-08-04T19:00:45.761Z,100892.97
2022-08-04T19:03:16.627Z,100891.78
2022-08-04T19:05:51.306Z,100888.97
2022-08-04T19:08:33.040Z,100894.19
2022-08-04T19:11:36.862Z,100899.03
2022-08-04T19:13:54.767Z,100907.34
2022-08-04T19:16:30.452Z,100889.19
2022-08-04T19:19:00.462Z,100901.25
2022-08-04T19:22:00.107Z,100912.31
2022-08-04T19:24:31.546Z,100900.19
2022-08-04T19:27:07.023Z,100910.41
2022-08-04T19:29:40.549Z,100921.28
2022-08-04T19:32:14.097Z,100919.97
2022-08-04T19:34:47.612Z,100921.03
2022-08-04T19:37:58.368Z,100929.56
2022-08-04T19:40:09.641Z,100922.69
2022-08-04T19:42:37.802Z,100912.66
2022-08-04T19:45:06.242Z,100923.66
2022-08-04T19:48:16.992Z,100894.34
2022-08-04T19:53:19.594Z,100902.94
2022-08-04T19:55:49.821Z,100909.25
2022-08-04T19:58:17.793Z,100925.69
2022-08-04T20:04:09.558Z,100927.03
2022-08-04T20:06:19.637Z,100945.59
2022-08-04T20:08:48.682Z,100937.09
2022-08-04T20:11:16.691Z,100948.72
2022-08-04T20:13:54.285Z,100961.28
2022-08-04T20:16:29.741Z,100967.69
2022-08-04T20:19:03.153Z,100974.88
2022-08-04T20:21:54.213Z,100973.56
2022-08-04T20:24:39.974Z,100987.69
2022-08-04T20:27:14.931Z,100992.56
2022-08-04T20:29:58.449Z,100998.25
2022-08-04T20:32:29.401Z,100991.22
2022-08-04T20:34:57.502Z,100993.81
2022-08-04T20:37:26.730Z,101007.13
2022-08-04T20:40:14.644Z,101008.63
2022-08-04T20:42:46.282Z,101014.53
2022-08-04T20:45:16.113Z,101007.06
2022-08-04T20:47:45.918Z,100984.47
2022-08-04T20:50:30.166Z,100978.69
2022-08-04T20:52:58.649Z,100975.56
2022-08-04T20:55:29.410Z,100987.72
2022-08-04T20:58:03.403Z,100981.41
2022-08-04T21:00:31.799Z,100974.19
2022-08-04T21:02:59.854Z,100982.00
2022-08-04T21:05:27.430Z,100962.22
2022-08-04T21:07:57.098Z,100962.09
2022-08-04T21:10:25.754Z,100933.84
2022-08-04T21:12:54.202Z,100932.38
2022-08-04T21:15:25.545Z,100941.25
2022-08-04T21:17:57.867Z,100980.69
2022-08-04T21:23:18.277Z,101023.38
2022-08-04T21:25:50.964Z,101023.97
2022-08-04T21:28:20.345Z,100978.88
2022-08-04T21:30:52.704Z,100978.34
2022-08-04T21:33:22.871Z,100970.28
2022-08-04T21:35:54.506Z,100964.47
2022-08-04T21:38:27.850Z,100993.41
2022-08-04T21:40:56.961Z,101028.06
2022-08-04T21:43:27.269Z,101040.44
2022-08-04T21:45:55.871Z,101032.47
2022-08-04T21:48:27.676Z,101035.66
2022-08-04T21:50:55.304Z,101010.25
2022-08-04T21:53:22.686Z,101024.28
2022-08-04T21:56:05.010Z,101045.63
2022-08-04T21:58:37.658Z,101072.63
2022-08-04T22:01:12.961Z,101065.28
2022-08-04T22:03:52.485Z,101067.97
2022-08-04T22:06:28.109Z,101048.03
2022-08-04T22:08:57.025Z,101039.78
2022-08-04T22:11:48.625Z,101029.94
2022-08-04T22:14:18.045Z,101023.69
2022-08-04T22:16:58.461Z,101015.78
2022-08-04T22:19:39.561Z,101023.19
2022-08-04T22:22:09.484Z,101052.59
2022-08-04T22:24:39.848Z,101048.69
2022-08-04T22:27:37.478Z,101054.78
2022-08-04T22:30:10.534Z,101043.22
2022-08-04T22:32:47.062Z,101037.34
2022-08-04T22:35:30.988Z,101038.66
2022-08-04T22:38:05.829Z,101001.47
2022-08-04T22:40:41.083Z,100992.78
2022-08-04T22:43:32.090Z,100968.03
2022-08-04T22:45:55.692Z,100943.22
2022-08-04T22:48:23.095Z,100935.81
2022-08-04T22:50:55.137Z,100947.38
2022-08-04T22:53:22.344Z,100957.06
2022-08-04T22:56:06.855Z,100945.28
2022-08-04T22:58:37.080Z,100942.06
2022-08-04T23:01:08.867Z,100942.53
2022-08-04T23:03:38.441Z,100993.88
2022-08-04T23:06:07.206Z,101004.41
2022-08-04T23:08:43.149Z,101024.00
2022-08-04T23:11:14.770Z,101059.94
2022-08-04T23:13:42.246Z,101067.88
2022-08-04T23:16:09.717Z,101144.38
2022-08-04T23:18:42.181Z,101152.03
2022-08-04T23:21:14.036Z,101139.63
2022-08-04T23:23:55.287Z,101112.50
2022-08-04T23:26:29.151Z,101133.94
2022-08-04T23:28:56.517Z,101142.59
2022-08-04T23:31:24.713Z,101148.72
2022-08-04T23:33:52.506Z,101147.56
2022-08-04T23:36:29.398Z,101137.44
2022-08-04T23:39:05.857Z,101145.19
2022-08-04T23:41:53.952Z,101096.63
2022-08-04T23:44:24.980Z,101013.41
2022-08-04T23:47:03.864Z,100965.00
2022-08-04T23:49:40.803Z,100950.69
2022-08-04T23:52:27.990Z,100917.81
2022-08-04T23:54:58.833Z,100858.53
2022-08-04T23:57:30.906Z,100857.28
